罗盘
风向 的 风向 的 风向 到 风向 260°
风向 到 风: 7 kt, 阵阵 15 kt, 3 beaufort

添加一条跑道以查看侧风和逆风信息。

添置 跑道
0 1.000 2.000 3.000 4.000 5.000
SCT 3.000 ft
METAR CYYZ 271300Z 26007G15KT 240V320 15SM SCT030 19/10 A3001 RMK CU3 SLP161 DENSITY ALT 1100FT

METAR Little's Farm

该字段位于加拿大中。

这份报告是针对2022年6月27日 9:00 上午, 当地时间在多倫多皮爾遜國際機場进行的。

机场观察

风向为260°,速度为7 kt。 已测得15 kt的阵风。 风向在240°和320°之间变化。

可见度为15 mi。

有疏云,零星散落的云朵在3.000 ft的高度。 没有观察到天花板。

温度和风寒是66 °F。 露点为50 °F,相对湿度为56%。 海平面上的气压为30,00 inHg (QNH)。

白天

今天,太阳从5:39 上午升起,在9:05 下午降落。 这适用于Little's Farm,世界夏令时可能有所不同。 当地时间与世界标准时间之间的时差为-4 小时。 夏令时目前正在进行中。

公司介绍

我们没有关于这个机场的公司信息。

体会

到Vliegles.nl去找飞行课程,跳伞和其他飞行体验。 浏览页面,了解Little's Farm附近所有可用的活动。 你也可以使用搜索功能来寻找你所在地附近的特定飞行课程、跳伞或其他飞行体验。

您会帮助我们保持Metar-Taf.com正常运行吗?
您的贡献有助于网站的进一步开发并支付费用。

没有更多广告

您是捐款5美元还是更多?然后,我们将永远不会再向您展示广告,这是我们永恒的感谢!
捐赠前先登录

乌云

3.000 ft SCT 疏云,零星散落的云朵

温度 & 天气

温度 66 °F
露点 50 °F
相对湿度 56%
Kp-index 0  

评论

SLP161海平面压力为30,01 inHg (30,01 inHg)
CU3 DENSITY ALT 1100FT

公司介绍

新增公司

下载我们的应用程序

在您的手机和平板电脑上轻松访问所有航空天气。
有许多网站上没有的功能,如离线支持和个人机场列表。

Studio Eveline

Benalmádena
España

我们和第三方通过cookies跟踪您在我们网站上的上网行为。如果您继续,我们认为您同意我们的cookie政策。 了解更多